createdAt,value
2022-08-11T00:01:20.721Z,70.27
2022-08-11T00:03:53.301Z,70.36
2022-08-11T00:06:25.484Z,70.48
2022-08-11T00:08:53.514Z,70.50
2022-08-11T00:11:21.499Z,70.48
2022-08-11T00:13:49.966Z,70.43
2022-08-11T00:16:17.940Z,70.55
2022-08-11T00:18:48.416Z,70.66
2022-08-11T00:21:16.435Z,70.75
2022-08-11T00:23:52.643Z,70.87
2022-08-11T00:26:21.560Z,70.96
2022-08-11T00:28:48.215Z,71.05
2022-08-11T00:31:28.935Z,71.24
2022-08-11T00:33:58.262Z,71.20
2022-08-11T00:36:55.589Z,71.15
2022-08-11T00:39:29.072Z,71.01
2022-08-11T00:42:07.910Z,70.84
2022-08-11T00:44:37.644Z,70.78
2022-08-11T00:47:15.306Z,70.85
2022-08-11T00:50:17.104Z,70.94
2022-08-11T00:52:59.101Z,70.99
2022-08-11T00:55:47.256Z,71.03
2022-08-11T00:58:40.562Z,70.79
2022-08-11T01:01:17.009Z,70.96
2022-08-11T01:04:04.810Z,70.86
2022-08-11T01:06:49.683Z,70.88
2022-08-11T01:09:51.550Z,70.97
2022-08-11T01:12:26.086Z,71.14
2022-08-11T01:15:14.439Z,71.15
2022-08-11T01:18:08.492Z,71.08
2022-08-11T01:21:00.439Z,71.19
2022-08-11T01:23:45.844Z,71.36
2022-08-11T01:26:43.509Z,71.47
2022-08-11T01:29:24.349Z,71.57
2022-08-11T01:32:28.855Z,71.64
2022-08-11T01:35:17.117Z,71.71
2022-08-11T01:38:25.202Z,71.83
2022-08-11T01:41:00.521Z,71.82
2022-08-11T01:44:12.755Z,71.97
2022-08-11T01:47:34.066Z,72.09
2022-08-11T01:50:14.570Z,72.27
2022-08-11T01:53:09.865Z,72.28
2022-08-11T01:55:48.416Z,72.32
2022-08-11T01:58:44.077Z,72.51
2022-08-11T02:02:27.618Z,72.54
2022-08-11T02:05:14.090Z,72.76
2022-08-11T02:07:52.874Z,73.09
2022-08-11T02:11:09.427Z,73.23
2022-08-11T02:13:57.963Z,73.41
2022-08-11T02:16:40.121Z,73.64
2022-08-11T02:19:56.616Z,73.76
2022-08-11T02:23:00.479Z,73.73
2022-08-11T02:25:40.899Z,73.62
2022-08-11T02:28:19.318Z,73.47
2022-08-11T02:32:14.654Z,73.28
2022-08-11T02:34:42.820Z,73.19
2022-08-11T02:37:23.886Z,73.25
2022-08-11T02:40:15.433Z,73.25
2022-08-11T02:42:57.611Z,73.13
2022-08-11T02:45:45.732Z,73.09
2022-08-11T02:48:54.978Z,73.12
2022-08-11T02:51:24.531Z,73.21
2022-08-11T02:54:02.150Z,73.21
2022-08-11T02:56:38.026Z,73.01
2022-08-11T02:59:33.123Z,72.90
2022-08-11T03:02:11.787Z,72.82
2022-08-11T03:05:04.005Z,72.76
2022-08-11T03:07:51.629Z,72.69
2022-08-11T03:10:18.112Z,72.84
2022-08-11T03:13:22.319Z,72.89
2022-08-11T03:16:18.915Z,72.97
2022-08-11T03:19:02.854Z,73.12
2022-08-11T03:22:03.617Z,73.08
2022-08-11T03:24:45.924Z,73.15
2022-08-11T03:27:43.325Z,73.23
2022-08-11T03:30:17.785Z,73.51
2022-08-11T03:33:16.621Z,73.63
2022-08-11T03:36:01.290Z,73.67
2022-08-11T03:38:43.499Z,73.81
2022-08-11T03:42:01.246Z,73.97
2022-08-11T03:44:55.214Z,74.12
2022-08-11T03:47:54.865Z,74.19
2022-08-11T03:50:55.518Z,74.53
2022-08-11T03:53:58.739Z,74.83
2022-08-11T03:56:43.704Z,74.92
2022-08-11T03:59:44.329Z,75.04
2022-08-11T04:02:45.484Z,75.34
2022-08-11T04:05:21.129Z,75.40
2022-08-11T04:07:59.936Z,75.35
2022-08-11T04:10:47.867Z,75.33
2022-08-11T04:14:22.787Z,75.29
2022-08-11T04:17:22.967Z,75.23
2022-08-11T04:19:57.503Z,75.05
2022-08-11T04:22:54.498Z,74.96
2022-08-11T04:25:30.454Z,74.89
2022-08-11T04:28:18.881Z,75.00
2022-08-11T04:31:08.514Z,74.99
2022-08-11T04:33:55.378Z,75.05
2022-08-11T04:36:43.589Z,75.12
2022-08-11T04:39:12.961Z,75.12
2022-08-11T04:41:59.515Z,75.12
2022-08-11T04:44:53.997Z,75.18
2022-08-11T04:48:10.222Z,75.26
2022-08-11T04:51:17.313Z,75.36
2022-08-11T04:54:28.798Z,75.34
2022-08-11T04:57:23.328Z,75.49
2022-08-11T05:00:30.851Z,75.78
2022-08-11T05:03:18.648Z,75.73
2022-08-11T05:06:09.742Z,75.51
2022-08-11T05:09:11.734Z,75.45
2022-08-11T05:11:38.331Z,75.38
2022-08-11T05:14:29.372Z,75.22
2022-08-11T05:17:24.915Z,75.35
2022-08-11T05:20:10.039Z,75.38
2022-08-11T05:23:02.502Z,75.39
2022-08-11T05:26:43.289Z,75.49
2022-08-11T05:29:19.563Z,75.67
2022-08-11T05:32:16.884Z,75.69
2022-08-11T05:34:54.331Z,75.65
2022-08-11T05:37:32.415Z,75.71
2022-08-11T05:40:28.950Z,75.79
2022-08-11T05:43:20.788Z,75.72
2022-08-11T05:46:23.180Z,75.53
2022-08-11T05:49:10.604Z,75.39
2022-08-11T05:52:05.530Z,75.41
2022-08-11T05:54:59.182Z,75.40
2022-08-11T05:57:49.035Z,75.16
2022-08-11T06:00:20.251Z,75.06
2022-08-11T06:02:54.690Z,75.02
2022-08-11T06:05:38.465Z,74.94
2022-08-11T06:08:13.247Z,74.83
2022-08-11T06:10:42.644Z,74.42
2022-08-11T06:13:14.001Z,74.27
2022-08-11T06:15:49.258Z,74.12
2022-08-11T06:18:17.046Z,73.97
2022-08-11T06:20:47.425Z,73.88
2022-08-11T06:23:18.103Z,73.54
2022-08-11T06:25:45.297Z,73.34
2022-08-11T06:28:19.932Z,72.90
2022-08-11T06:30:48.385Z,72.46
2022-08-11T06:33:35.656Z,72.02
2022-08-11T06:36:30.647Z,71.79
2022-08-11T06:39:19.692Z,71.71
2022-08-11T06:42:04.926Z,71.69
2022-08-11T06:44:53.934Z,71.44
2022-08-11T06:47:20.962Z,71.08
2022-08-11T06:50:07.107Z,70.93
2022-08-11T06:52:36.501Z,70.99
2022-08-11T06:55:58.097Z,70.91
2022-08-11T06:58:50.419Z,70.83
2022-08-11T07:01:28.727Z,70.78
2022-08-11T07:04:04.964Z,70.46
2022-08-11T07:07:13.684Z,70.58
2022-08-11T07:10:18.121Z,70.62
2022-08-11T07:13:07.522Z,70.67
2022-08-11T07:16:11.152Z,70.47
2022-08-11T07:18:52.043Z,69.92
2022-08-11T07:22:01.599Z,69.15
2022-08-11T07:24:59.391Z,67.66
2022-08-11T07:28:01.019Z,67.96
2022-08-11T07:30:28.835Z,68.35
2022-08-11T07:33:00.074Z,68.13
2022-08-11T07:35:42.133Z,67.21
2022-08-11T07:38:22.213Z,66.65
2022-08-11T07:40:50.950Z,66.58
2022-08-11T07:43:21.041Z,66.54
2022-08-11T07:46:06.923Z,66.03
2022-08-11T07:48:53.575Z,65.64
2022-08-11T07:51:39.790Z,65.97
2022-08-11T07:54:16.378Z,66.06
2022-08-11T07:56:55.348Z,64.35
2022-08-11T08:00:00.230Z,64.33
2022-08-11T08:02:59.285Z,64.79
2022-08-11T08:05:44.968Z,64.51
2022-08-11T08:08:33.275Z,63.94
2022-08-11T08:11:23.814Z,64.03
2022-08-11T08:14:13.321Z,63.65
2022-08-11T08:16:59.320Z,63.23
2022-08-11T08:19:57.950Z,62.14
2022-08-11T08:22:38.012Z,61.95
2022-08-11T08:25:07.072Z,61.32
2022-08-11T08:27:35.790Z,60.16
2022-08-11T08:30:23.509Z,60.53
2022-08-11T08:32:52.151Z,60.68
2022-08-11T08:35:21.556Z,61.52
2022-08-11T08:37:51.535Z,61.55
2022-08-11T08:40:18.886Z,61.44
2022-08-11T08:42:54.683Z,61.54
2022-08-11T08:45:22.921Z,61.64
2022-08-11T08:47:53.521Z,61.68
2022-08-11T08:50:27.908Z,60.98
2022-08-11T08:53:05.772Z,59.32
2022-08-11T08:55:33.863Z,58.41
2022-08-11T08:58:01.800Z,57.36
2022-08-11T09:00:45.021Z,56.77
2022-08-11T09:03:38.935Z,57.45
2022-08-11T09:06:00.957Z,58.30
2022-08-11T09:08:32.322Z,57.90
2022-08-11T09:11:19.278Z,57.94
2022-08-11T09:13:47.127Z,58.35
2022-08-11T09:16:32.598Z,58.44
2022-08-11T09:19:00.455Z,58.62
2022-08-11T09:21:46.463Z,58.58
2022-08-11T09:24:32.865Z,58.81
2022-08-11T09:27:05.827Z,58.32
2022-08-11T09:29:33.437Z,55.30
2022-08-11T09:32:00.872Z,54.15
2022-08-11T09:34:28.520Z,53.70
2022-08-11T09:37:53.778Z,54.52
2022-08-11T09:40:27.240Z,55.57
2022-08-11T09:43:15.278Z,55.51
2022-08-11T09:45:50.715Z,54.88
2022-08-11T09:48:23.209Z,54.48
2022-08-11T09:50:56.246Z,54.54
2022-08-11T09:53:37.389Z,55.00
2022-08-11T09:56:38.820Z,55.37
2022-08-11T09:59:06.716Z,54.48
2022-08-11T10:01:47.300Z,52.76
2022-08-11T10:04:34.321Z,51.35
2022-08-11T10:07:04.171Z,50.94
2022-08-11T10:09:51.414Z,50.75
2022-08-11T10:12:34.533Z,51.92
2022-08-11T10:15:27.318Z,51.68
2022-08-11T10:18:18.472Z,51.72
2022-08-11T10:20:51.022Z,51.75
2022-08-11T10:24:00.927Z,50.12
2022-08-11T10:26:46.160Z,50.09
2022-08-11T10:29:37.589Z,50.83
2022-08-11T10:32:32.522Z,51.65
2022-08-11T10:35:08.493Z,51.82
2022-08-11T10:38:16.079Z,50.25
2022-08-11T10:40:24.889Z,49.74
2022-08-11T10:43:12.594Z,50.01
2022-08-11T10:46:04.784Z,48.04
2022-08-11T10:48:39.490Z,48.29
2022-08-11T10:51:12.888Z,48.94
2022-08-11T10:54:01.940Z,49.17
2022-08-11T10:56:48.997Z,47.88
2022-08-11T10:59:16.918Z,47.07
2022-08-11T11:01:45.537Z,47.92
2022-08-11T11:04:13.639Z,49.31
2022-08-11T11:06:58.804Z,49.61
2022-08-11T11:09:31.774Z,47.46
2022-08-11T11:12:24.873Z,47.73
2022-08-11T11:15:17.997Z,48.15
2022-08-11T11:17:57.345Z,47.44
2022-08-11T11:20:38.702Z,46.04
2022-08-11T11:23:22.232Z,45.69
2022-08-11T11:26:27.962Z,46.32
2022-08-11T11:29:13.438Z,46.51
2022-08-11T11:32:11.010Z,47.37
2022-08-11T11:35:08.458Z,43.12
2022-08-11T11:37:36.582Z,43.82
2022-08-11T11:40:23.118Z,43.64
2022-08-11T11:43:00.136Z,43.59
2022-08-11T11:45:27.577Z,43.60
2022-08-11T11:47:57.778Z,42.64
2022-08-11T11:50:31.499Z,41.48
2022-08-11T11:53:01.542Z,41.51
2022-08-11T11:55:30.078Z,41.63
2022-08-11T11:58:19.019Z,41.37
2022-08-11T12:01:05.699Z,40.25
2022-08-11T12:03:33.896Z,40.36
2022-08-11T12:06:02.978Z,40.52
2022-08-11T12:08:31.478Z,40.38
2022-08-11T12:11:20.020Z,41.52
2022-08-11T12:13:50.522Z,42.09
2022-08-11T12:16:33.573Z,41.81
2022-08-11T12:19:05.001Z,41.64
2022-08-11T12:21:34.245Z,40.49
2022-08-11T12:24:21.788Z,40.63
2022-08-11T12:27:02.752Z,40.28
2022-08-11T12:29:43.821Z,39.83
2022-08-11T12:32:11.676Z,41.10
2022-08-11T12:34:38.618Z,41.46
2022-08-11T12:37:10.398Z,41.64
2022-08-11T12:40:42.518Z,42.49
2022-08-11T12:43:37.358Z,43.47
2022-08-11T12:46:33.338Z,43.39
2022-08-11T12:49:32.571Z,43.57
2022-08-11T12:52:14.360Z,42.82
2022-08-11T12:54:58.108Z,42.82
2022-08-11T12:57:53.934Z,42.68
2022-08-11T13:00:40.252Z,43.62
2022-08-11T13:03:27.311Z,42.80
2022-08-11T13:05:56.695Z,42.94
2022-08-11T13:08:25.135Z,43.32
2022-08-11T13:11:13.662Z,43.23
2022-08-11T13:13:54.341Z,42.30
2022-08-11T13:16:26.162Z,40.91
2022-08-11T13:18:53.754Z,41.14
2022-08-11T13:21:22.517Z,41.45
2022-08-11T13:23:59.897Z,41.15
2022-08-11T13:26:47.000Z,38.77
2022-08-11T13:29:20.504Z,36.81
2022-08-11T13:31:48.713Z,38.34
2022-08-11T13:34:17.788Z,38.67
2022-08-11T13:36:45.357Z,39.38
2022-08-11T13:39:13.493Z,38.45
2022-08-11T13:41:43.482Z,37.66
2022-08-11T13:44:21.650Z,38.34
2022-08-11T13:46:53.013Z,38.73
2022-08-11T13:49:21.472Z,37.47
2022-08-11T13:51:49.170Z,36.50
2022-08-11T13:54:19.329Z,37.27
2022-08-11T13:56:50.567Z,37.06
2022-08-11T13:59:23.005Z,37.24
2022-08-11T14:02:19.597Z,37.39
2022-08-11T14:04:56.600Z,37.32
2022-08-11T14:07:31.619Z,37.49
2022-08-11T14:09:59.477Z,37.23
2022-08-11T14:12:49.307Z,37.51
2022-08-11T14:15:22.097Z,37.40
2022-08-11T14:17:54.644Z,37.78
2022-08-11T14:20:39.322Z,37.36
2022-08-11T14:23:13.530Z,37.36
2022-08-11T14:26:02.351Z,37.65
2022-08-11T14:28:37.454Z,37.36
2022-08-11T14:31:08.783Z,36.60
2022-08-11T14:34:00.168Z,36.74
2022-08-11T14:36:25.987Z,36.81
2022-08-11T14:38:54.249Z,36.91
2022-08-11T14:42:10.575Z,36.63
2022-08-11T14:44:53.989Z,36.26
2022-08-11T14:47:26.487Z,36.20
2022-08-11T14:49:59.470Z,35.34
2022-08-11T14:52:51.818Z,35.60
2022-08-11T14:55:40.579Z,36.44
2022-08-11T14:58:12.800Z,36.28
2022-08-11T15:00:41.773Z,35.90
2022-08-11T15:03:13.419Z,36.55
2022-08-11T15:05:53.669Z,36.47
2022-08-11T15:08:47.846Z,36.32
2022-08-11T15:11:35.971Z,36.43
2022-08-11T15:14:09.682Z,35.46
2022-08-11T15:17:00.361Z,36.01
2022-08-11T15:19:36.726Z,36.12
2022-08-11T15:22:35.793Z,36.39
2022-08-11T15:25:03.296Z,36.96
2022-08-11T15:27:51.519Z,37.13
2022-08-11T15:30:39.733Z,37.10
2022-08-11T15:33:28.986Z,37.59
2022-08-11T15:36:15.997Z,37.26
2022-08-11T15:38:55.378Z,37.18
2022-08-11T15:41:59.553Z,37.32
2022-08-11T15:45:06.475Z,37.49
2022-08-11T15:47:48.683Z,37.73
2022-08-11T15:50:19.350Z,37.40
2022-08-11T15:53:15.697Z,37.48
2022-08-11T15:55:43.098Z,37.61
2022-08-11T15:58:31.049Z,37.85
2022-08-11T16:01:19.056Z,38.11
2022-08-11T16:04:13.320Z,38.26
2022-08-11T16:06:51.267Z,38.41
2022-08-11T16:09:29.026Z,38.69
2022-08-11T16:12:09.199Z,38.95
2022-08-11T16:14:57.868Z,39.72
2022-08-11T16:17:27.178Z,40.04
2022-08-11T16:19:56.828Z,39.48
2022-08-11T16:22:39.366Z,38.68
2022-08-11T16:27:05.521Z,38.68
2022-08-11T16:28:03.525Z,39.56
2022-08-11T16:30:33.149Z,39.77
2022-08-11T16:33:48.128Z,39.70
2022-08-11T16:36:10.633Z,39.88
2022-08-11T16:38:39.504Z,39.92
2022-08-11T16:41:13.385Z,39.72
2022-08-11T16:44:04.325Z,39.68
2022-08-11T16:46:41.002Z,39.87
2022-08-11T16:49:17.652Z,40.25
2022-08-11T16:51:45.021Z,40.65
2022-08-11T16:54:12.507Z,40.77
2022-08-11T16:56:50.043Z,40.71
2022-08-11T16:59:22.106Z,40.65
2022-08-11T17:01:57.464Z,40.93
2022-08-11T17:05:11.364Z,41.14
2022-08-11T17:08:01.141Z,41.66
2022-08-11T17:10:56.684Z,41.94
2022-08-11T17:13:51.567Z,42.00
2022-08-11T17:16:24.449Z,42.19
2022-08-11T17:18:59.160Z,42.27
2022-08-11T17:21:33.146Z,42.32
2022-08-11T17:24:08.759Z,42.55
2022-08-11T17:26:56.272Z,42.51
2022-08-11T17:29:54.790Z,42.49
2022-08-11T17:32:55.915Z,42.60
2022-08-11T17:35:32.211Z,42.53
2022-08-11T17:38:19.703Z,42.61
2022-08-11T17:41:22.760Z,42.72
2022-08-11T17:44:11.665Z,42.84
2022-08-11T17:47:02.246Z,42.94
2022-08-11T17:49:36.842Z,42.98
2022-08-11T17:52:24.558Z,43.24
2022-08-11T17:55:11.697Z,43.37
2022-08-11T17:58:00.227Z,43.61
2022-08-11T18:00:27.489Z,44.11
2022-08-11T18:03:14.156Z,44.37
2022-08-11T18:05:43.951Z,44.67
2022-08-11T18:08:31.687Z,44.92
2022-08-11T18:12:11.555Z,44.99
2022-08-11T18:14:25.993Z,45.01
2022-08-11T18:17:11.035Z,45.19
2022-08-11T18:19:56.527Z,45.31
2022-08-11T18:22:48.027Z,45.54
2022-08-11T18:25:45.388Z,45.48
2022-08-11T18:28:34.956Z,45.56
2022-08-11T18:31:24.032Z,45.60
2022-08-11T18:34:15.224Z,45.88
2022-08-11T18:37:28.633Z,46.16
2022-08-11T18:40:26.499Z,46.19
2022-08-11T18:43:15.316Z,46.26
2022-08-11T18:46:06.681Z,46.21
2022-08-11T18:49:00.585Z,46.20
2022-08-11T18:51:46.580Z,46.36
2022-08-11T18:54:34.005Z,46.41
2022-08-11T18:57:21.749Z,46.52
2022-08-11T19:00:10.145Z,46.42
2022-08-11T19:02:58.064Z,46.67
2022-08-11T19:06:35.841Z,46.68
2022-08-11T19:08:59.653Z,46.65
2022-08-11T19:11:46.814Z,46.92
2022-08-11T19:14:33.583Z,47.20
2022-08-11T19:17:44.217Z,47.35
2022-08-11T19:20:29.492Z,47.41
2022-08-11T19:23:16.046Z,47.76
2022-08-11T19:26:02.003Z,47.86
2022-08-11T19:28:48.868Z,48.25
2022-08-11T19:31:35.689Z,48.70
2022-08-11T19:34:20.964Z,48.79
2022-08-11T19:37:06.738Z,48.68
2022-08-11T19:39:54.196Z,48.99
2022-08-11T19:42:40.756Z,49.20
2022-08-11T19:45:26.019Z,49.27
2022-08-11T19:48:31.108Z,49.44
2022-08-11T19:51:18.473Z,49.60
2022-08-11T19:54:05.970Z,49.89
2022-08-11T19:56:53.322Z,50.21
2022-08-11T19:59:41.997Z,50.41
2022-08-11T20:02:27.748Z,50.54
2022-08-11T20:05:12.723Z,50.95
2022-08-11T20:07:59.864Z,50.98
2022-08-11T20:10:46.812Z,51.16
2022-08-11T20:13:33.263Z,51.26
2022-08-11T20:16:21.543Z,51.38
2022-08-11T20:19:08.157Z,51.11
2022-08-11T20:21:55.894Z,51.33
2022-08-11T20:24:42.741Z,51.37
2022-08-11T20:27:29.683Z,51.51
2022-08-11T20:30:16.981Z,52.02
2022-08-11T20:33:03.097Z,52.09
2022-08-11T20:35:52.300Z,51.97
2022-08-11T20:38:40.198Z,52.14
2022-08-11T20:41:28.359Z,52.13
2022-08-11T20:44:14.928Z,51.73
2022-08-11T20:47:04.147Z,51.73
2022-08-11T20:49:55.190Z,51.94
2022-08-11T20:52:48.486Z,52.22
2022-08-11T20:55:52.186Z,52.44
2022-08-11T21:01:47.364Z,52.61
2022-08-11T21:07:55.603Z,53.15
2022-08-11T21:10:51.131Z,53.31
2022-08-11T21:13:41.157Z,53.46
2022-08-11T21:16:31.405Z,53.63
2022-08-11T21:20:00.453Z,53.85
2022-08-11T21:22:59.283Z,54.34
2022-08-11T21:25:53.584Z,54.51
2022-08-11T21:28:40.262Z,54.59
2022-08-11T21:31:27.456Z,54.63
2022-08-11T21:34:13.806Z,54.89
2022-08-11T21:37:01.880Z,55.15
2022-08-11T21:39:49.035Z,55.31
2022-08-11T21:42:38.739Z,55.41
2022-08-11T21:45:27.137Z,55.53
2022-08-11T21:48:13.863Z,55.63
2022-08-11T21:50:59.082Z,55.86
2022-08-11T21:53:45.513Z,55.98
2022-08-11T21:56:31.467Z,56.24
2022-08-11T21:59:18.154Z,56.27
2022-08-11T22:02:10.447Z,56.15
2022-08-11T22:04:59.812Z,56.37
2022-08-11T22:07:46.274Z,56.68
2022-08-11T22:10:41.998Z,56.84
2022-08-11T22:13:31.603Z,56.90
2022-08-11T22:16:20.492Z,57.08
2022-08-11T22:19:09.016Z,57.28
2022-08-11T22:22:01.712Z,57.58
2022-08-11T22:24:52.119Z,57.61
2022-08-11T22:27:39.160Z,57.87
2022-08-11T22:30:28.829Z,58.06
2022-08-11T22:33:25.544Z,58.08
2022-08-11T22:36:14.352Z,58.33
2022-08-11T22:39:01.702Z,58.50
2022-08-11T22:41:47.356Z,58.55
2022-08-11T22:44:32.969Z,58.68
2022-08-11T22:47:19.516Z,58.72
2022-08-11T22:50:09.183Z,58.72
2022-08-11T22:52:55.304Z,58.90
2022-08-11T22:55:42.282Z,59.03
2022-08-11T22:58:28.539Z,59.18
2022-08-11T23:01:14.831Z,59.34
2022-08-11T23:04:00.570Z,59.55
2022-08-11T23:06:47.714Z,59.72
2022-08-11T23:09:34.539Z,59.81
2022-08-11T23:12:19.785Z,59.82
2022-08-11T23:15:07.442Z,59.95
2022-08-11T23:17:53.769Z,59.88
2022-08-11T23:20:42.278Z,60.11
2022-08-11T23:23:34.042Z,60.19
2022-08-11T23:26:20.237Z,60.42
2022-08-11T23:29:06.095Z,60.50
2022-08-11T23:31:54.454Z,60.60
2022-08-11T23:35:36.977Z,60.64
2022-08-11T23:38:00.033Z,60.72
2022-08-11T23:40:45.671Z,60.97
2022-08-11T23:43:41.645Z,61.08
2022-08-11T23:46:27.866Z,61.07
2022-08-11T23:49:21.700Z,61.19
2022-08-11T23:52:10.594Z,61.39
2022-08-11T23:54:56.450Z,61.56
2022-08-11T23:57:48.752Z,61.68
